Haslev, Denmark
Current Conditions -  °F | °C
As of 1:20 AM on Saturday 25 Oct 2014 (Local Time) from EKRK Reporting Station
Broken Clouds Broken Clouds  
Wind Chill: 50°   Ceiling: 1100
Heat Index: 50°   Visibility: 4mi
Dew Point: 46°   Wind: 13mph
Humidity: 87%   Direction: 170°S
Pressure: 30.03"   Gusts: NA
Location:  55.32°N, 11.96°E
Report Text: EKRK 242320Z AUTO 17011KT 6000NDV SCT009/// BKN011///10/08 Q1017
Loading
Personal Weather Stations






























Interactive Weather Map
Tropical Storm Tracking
New forecast layout! Learn more

10-Day Weather Forecast

Advertisements
Track Severe Weather on mobile